WEATHER DATA

YESTERDAY
Time Temp. Dewp. Hum. Bar.
00:17 22.3 11.1 49 1022.7
00:53 21.8 10.9 50 1022.7
01:01 21.6 11 51 1022.3
01:53 20.5 10.6 53 1022.1
02:21 20 10.4 54 1022
02:51 19.5 10.2 55 1022
03:10 19.2 10.2 56 1021.8
03:50 18.8 10.1 57 1021.6
04:20 18.5 9.8 57 1021.3
05:22 17.7 9.8 60 1021
06:25 16.9 9.8 63 1020.9
06:36 16.8 9.7 63 1021
07:18 17 10.4 65 1020.9
07:36 17.1 10.5 65 1021
07:46 17.2 10.6 65 1021
08:07 17.6 11.2 66 1020.9
08:23 18 11.3 65 1021
08:37 18.3 11.6 65 1020.9
09:41 20.1 12.4 61 1020.9
09:59 20.6 12.3 59 1020.9
10:15 21 12.2 57 1020.9
10:46 21.8 12.4 55 1020.7
11:09 22.5 12.5 53 1020.7
11:25 23 12.9 53 1020.7
11:33 23.3 12.9 52 1020.6
12:02 24.2 13.4 51 1020.4
12:25 25.3 13.5 48 1020.3
12:34 25.7 13.6 47 1020.3
12:46 26.2 13.3 45 1020.2
12:56 26.6 13.7 45 1020
13:23 27.5 14.2 44 1020
13:36 27.4 14.1 44 1019.9
13:39 27.4 14.1 44 1019.8
13:52 27.3 13.6 43 1019.8
14:02 27.3 14 44 1019.7
14:17 26.7 13.8 45 1019.9
14:47 25.3 15 53 1020.1
14:56 25 14.8 53 1020.2
15:15 24.3 15 56 1020.2
15:27 23.9 15.1 58 1020.2
15:34 23.8 15.3 59 1020.1
15:46 23.8 14.8 57 1019.9
15:57 23.8 14.5 56 1019.7
16:08 24 14.1 54 1019.6
16:10 24 14.1 54 1019.7
16:26 25.2 15.2 54 1019.5
16:38 26.4 15.5 51 1019.3
16:48 27.4 15.4 48 1019.1
16:56 28 14.6 44 1019.1
17:05 28.6 14.4 42 1019
17:18 28.6 15.2 44 1019
17:23 28.9 15.4 44 1018.8
17:53 28.4 15.3 45 1018.8
17:58 28 14.6 44 1018.7
18:13 27.4 14.8 46 1018.7
18:23 28 15 45 1018.5
18:30 28.1 15.1 45 1018.4
18:40 28 14.6 44 1018.4
18:51 27.7 15 46 1018.4
19:08 27.6 14.9 46 1018.2
19:23 28.9 15.1 43 1018.2
19:32 29.6 15.3 42 1018.2
19:42 29.8 15.1 41 1018.1
19:54 30.1 15 40 1018.1
20:13 29.9 15.2 41 1018.1
20:15 29.8 15.1 41 1018.2
20:32 28.9 14.7 42 1018.2
20:38 28.4 14.3 42 1018.3
20:50 27.6 13.9 43 1018.4
20:57 27.1 13.5 43 1018.4
21:14 26 13.5 46 1018.4
21:20 25.7 13.6 47 1018.5
21:35 24.9 13.1 48 1018.4
21:40 24.7 13 48 1018.5
22:02 23.8 12.8 50 1018.4
22:07 23.6 12.6 50 1018.4
22:18 23.3 12 49 1018.2
22:51 22.4 11.5 50 1018.2
22:52 22.4 11.5 50 1018.2
23:08 22 11.4 51 1018.1
23:21 21.7 11.1 51 1018
23:35 21.4 10.6 50 1018
23:44 21.3 10.5 50 1018.1

DAY STATISTIC

2018-07-20
TEMPERATURE
AVERAGE
24.2
HIGH
30.1
19:54
LOW
16.8
06:36
PRESSURE
AVERAGE
1019.7
HIGH
1022.7
00:17
LOW
1018.0
23:21
DEWPOINT
AVERAGE
13.1
HIGH
15.5
16:38
LOW
9.7
06:36
HUMIDITY
AVERAGE
51
HIGH
66
08:07
LOW
40
19:54
TEMPERATURE (°C)
LOW
16.8
HIGH
30.1
AVERAGE
24.2
PRESSURE (hpa)
LOW
1018.0
HIGH
1022.7
AVERAGE
1019.7
DEVICE